createdAt,value
2018-06-13T00:00:38.012Z,0.00
2018-06-13T00:02:32.362Z,0.00
2018-06-13T00:03:32.348Z,0.00
2018-06-13T00:05:26.423Z,0.00
2018-06-13T00:06:26.430Z,0.00
2018-06-13T00:08:20.567Z,0.00
2018-06-13T00:09:20.532Z,0.00
2018-06-13T00:11:14.652Z,0.00
2018-06-13T00:12:14.634Z,0.00
2018-06-13T00:14:08.720Z,0.00
2018-06-13T00:15:08.720Z,0.00
2018-06-13T00:17:02.917Z,0.00
2018-06-13T00:18:02.905Z,0.00
2018-06-13T00:19:56.981Z,0.00
2018-06-13T00:20:56.986Z,0.00
2018-06-13T00:22:51.099Z,0.00
2018-06-13T00:23:51.081Z,0.00
2018-06-13T00:25:45.158Z,0.00
2018-06-13T00:26:45.159Z,0.00
2018-06-13T00:28:39.281Z,0.00
2018-06-13T00:29:39.267Z,0.00
2018-06-13T00:31:33.401Z,0.00
2018-06-13T00:32:33.378Z,0.00
2018-06-13T00:34:27.464Z,0.00
2018-06-13T00:35:27.471Z,0.00
2018-06-13T00:37:21.595Z,0.00
2018-06-13T00:38:21.580Z,0.00
2018-06-13T00:40:15.669Z,0.00
2018-06-13T00:41:15.674Z,0.00
2018-06-13T00:43:09.811Z,0.00
2018-06-13T00:44:09.799Z,0.00
2018-06-13T00:46:03.873Z,0.00
2018-06-13T00:47:03.941Z,0.00
2018-06-13T00:48:57.984Z,0.00
2018-06-13T00:49:57.965Z,0.00
2018-06-13T00:51:52.049Z,0.00
2018-06-13T00:52:52.048Z,0.00
2018-06-13T00:54:46.656Z,0.00
2018-06-13T00:55:46.633Z,0.00
2018-06-13T00:57:40.734Z,0.00
2018-06-13T00:58:40.717Z,0.00
2018-06-13T01:00:34.923Z,0.00
2018-06-13T01:01:34.930Z,0.00
2018-06-13T01:03:29.028Z,0.00
2018-06-13T01:04:29.027Z,0.00
2018-06-13T01:06:23.128Z,0.00
2018-06-13T01:07:23.135Z,0.00
2018-06-13T01:09:17.236Z,0.00
2018-06-13T01:10:17.220Z,0.00
2018-06-13T01:12:11.304Z,0.00
2018-06-13T01:13:11.309Z,0.00
2018-06-13T01:15:05.410Z,0.00
2018-06-13T01:16:05.390Z,0.00
2018-06-13T01:18:00.488Z,0.00
2018-06-13T01:19:00.466Z,0.00
2018-06-13T01:20:54.560Z,0.00
2018-06-13T01:21:54.563Z,0.00
2018-06-13T01:23:48.674Z,0.00
2018-06-13T01:24:48.656Z,0.00
2018-06-13T01:26:42.757Z,0.00
2018-06-13T01:27:42.751Z,0.00
2018-06-13T01:29:36.850Z,0.00
2018-06-13T01:30:36.828Z,0.00
2018-06-13T01:32:30.914Z,0.00
2018-06-13T01:33:30.920Z,0.00
2018-06-13T01:35:25.029Z,0.00
2018-06-13T01:36:25.003Z,0.00
2018-06-13T01:38:19.088Z,0.00
2018-06-13T01:39:19.099Z,0.00
2018-06-13T01:41:13.195Z,0.00
2018-06-13T01:42:13.181Z,0.00
2018-06-13T01:44:07.312Z,0.00
2018-06-13T01:45:07.278Z,0.00
2018-06-13T01:47:01.360Z,0.00
2018-06-13T01:48:01.364Z,0.00
2018-06-13T01:49:55.473Z,0.00
2018-06-13T01:50:55.451Z,0.00
2018-06-13T01:52:49.573Z,0.00
2018-06-13T01:53:49.550Z,0.00
2018-06-13T01:55:43.650Z,0.00
2018-06-13T01:56:43.630Z,0.00
2018-06-13T01:58:38.233Z,0.00
2018-06-13T01:59:38.234Z,0.00
2018-06-13T02:01:32.408Z,0.00
2018-06-13T02:02:32.324Z,0.00
2018-06-13T02:04:26.443Z,0.00
2018-06-13T02:05:26.420Z,0.00
2018-06-13T02:07:20.514Z,0.00
2018-06-13T02:08:20.513Z,0.00
2018-06-13T02:10:14.608Z,0.00
2018-06-13T02:11:14.587Z,0.00
2018-06-13T02:13:08.676Z,0.00
2018-06-13T02:14:08.673Z,0.00
2018-06-13T02:16:02.786Z,0.00
2018-06-13T02:17:02.765Z,0.00
2018-06-13T02:18:56.856Z,0.00
2018-06-13T02:19:56.852Z,0.00
2018-06-13T02:21:50.976Z,0.00
2018-06-13T02:22:50.960Z,0.00
2018-06-13T02:24:45.080Z,0.00
2018-06-13T02:25:45.067Z,0.00
2018-06-13T02:27:39.141Z,0.00
2018-06-13T02:28:39.144Z,0.00
2018-06-13T02:30:33.244Z,0.00
2018-06-13T02:31:33.228Z,0.00
2018-06-13T02:33:27.303Z,0.00
2018-06-13T02:34:27.307Z,0.00
2018-06-13T02:36:21.405Z,0.00
2018-06-13T02:37:21.390Z,0.00
2018-06-13T02:39:15.477Z,0.00
2018-06-13T02:40:15.486Z,0.00
2018-06-13T02:42:09.610Z,0.00
2018-06-13T02:43:09.590Z,0.00
2018-06-13T02:45:03.689Z,0.00
2018-06-13T02:46:03.682Z,0.00
2018-06-13T02:47:57.790Z,0.00
2018-06-13T02:48:57.772Z,0.00
2018-06-13T02:50:51.884Z,0.00
2018-06-13T02:51:51.860Z,0.00
2018-06-13T02:53:45.948Z,0.00
2018-06-13T02:54:45.963Z,0.00
2018-06-13T02:56:40.065Z,0.00
2018-06-13T02:57:40.039Z,0.00
2018-06-13T02:59:34.139Z,0.00
2018-06-13T03:00:34.132Z,0.00
2018-06-13T03:02:28.232Z,0.00
2018-06-13T03:03:28.214Z,0.00
2018-06-13T03:05:22.316Z,0.00
2018-06-13T03:06:22.321Z,0.00
2018-06-13T03:08:16.652Z,0.00
2018-06-13T03:09:16.643Z,0.00
2018-06-13T03:11:10.724Z,0.00
2018-06-13T03:12:10.723Z,0.00
2018-06-13T03:14:04.795Z,0.00
2018-06-13T03:15:04.791Z,0.00
2018-06-13T03:16:58.906Z,0.00
2018-06-13T03:17:58.892Z,0.00
2018-06-13T03:19:52.964Z,0.00
2018-06-13T03:20:53.051Z,0.00
2018-06-13T03:22:47.273Z,0.00
2018-06-13T03:23:47.222Z,0.00
2018-06-13T03:25:41.394Z,0.00
2018-06-13T03:26:41.398Z,0.00
2018-06-13T03:28:35.516Z,0.00
2018-06-13T03:29:35.500Z,0.00
2018-06-13T03:31:29.607Z,0.00
2018-06-13T03:32:29.594Z,0.00
2018-06-13T03:34:23.675Z,0.00
2018-06-13T03:35:23.681Z,0.00
2018-06-13T03:37:17.788Z,0.00
2018-06-13T03:38:17.770Z,0.00
2018-06-13T03:40:11.931Z,0.00
2018-06-13T03:41:11.984Z,0.00
2018-06-13T03:43:06.040Z,0.00
2018-06-13T03:44:06.018Z,0.00
2018-06-13T03:46:00.113Z,0.00
2018-06-13T03:47:00.126Z,0.00
2018-06-13T03:48:54.226Z,0.00
2018-06-13T03:49:54.218Z,0.00
2018-06-13T03:51:48.379Z,0.00
2018-06-13T03:52:48.359Z,0.00
2018-06-13T03:54:42.399Z,0.00
2018-06-13T03:55:42.394Z,0.00
2018-06-13T03:57:36.519Z,0.00
2018-06-13T03:58:36.520Z,0.00
2018-06-13T04:00:30.603Z,0.00
2018-06-13T04:01:30.606Z,0.00
2018-06-13T04:03:24.722Z,0.00
2018-06-13T04:04:24.699Z,0.00
2018-06-13T04:06:18.846Z,0.00
2018-06-13T04:07:18.865Z,0.00
2018-06-13T04:09:13.595Z,0.00
2018-06-13T04:10:13.592Z,0.00
2018-06-13T04:12:07.677Z,0.00
2018-06-13T04:13:07.656Z,0.00
2018-06-13T04:15:01.742Z,0.00
2018-06-13T04:16:01.794Z,0.00
2018-06-13T04:17:55.892Z,0.00
2018-06-13T04:18:55.833Z,0.00
2018-06-13T04:20:49.905Z,0.00
2018-06-13T04:21:49.919Z,0.00
2018-06-13T04:23:44.024Z,0.00
2018-06-13T04:24:44.005Z,0.00
2018-06-13T04:26:38.149Z,0.00
2018-06-13T04:27:38.144Z,0.00
2018-06-13T04:29:32.212Z,0.00
2018-06-13T04:30:32.199Z,0.00
2018-06-13T04:32:26.316Z,0.00
2018-06-13T04:33:26.292Z,0.00
2018-06-13T04:35:20.879Z,0.00
2018-06-13T04:36:20.889Z,0.00
2018-06-13T04:38:14.987Z,0.00
2018-06-13T04:39:14.978Z,0.00
2018-06-13T04:41:09.056Z,0.00
2018-06-13T04:42:09.074Z,0.00
2018-06-13T04:44:03.285Z,0.00
2018-06-13T04:45:03.203Z,0.00
2018-06-13T04:46:57.268Z,0.00
2018-06-13T04:47:57.272Z,0.00
2018-06-13T04:49:51.381Z,0.00
2018-06-13T04:50:51.364Z,0.00
2018-06-13T04:52:45.469Z,0.00
2018-06-13T04:53:45.480Z,0.00
2018-06-13T04:55:39.578Z,0.00
2018-06-13T04:56:39.566Z,0.00
2018-06-13T04:58:33.664Z,0.00
2018-06-13T04:59:33.645Z,0.00
2018-06-13T05:01:27.729Z,0.00
2018-06-13T05:02:27.731Z,0.00
2018-06-13T05:04:21.877Z,0.00
2018-06-13T05:05:21.844Z,0.00
2018-06-13T05:07:17.436Z,0.00
2018-06-13T05:08:17.433Z,0.00
2018-06-13T05:10:11.550Z,0.00
2018-06-13T05:11:11.629Z,0.00
2018-06-13T05:13:05.620Z,0.00
2018-06-13T05:14:05.619Z,0.00
2018-06-13T05:15:59.730Z,0.00
2018-06-13T05:16:59.714Z,0.00
2018-06-13T05:18:53.819Z,0.00
2018-06-13T05:19:53.825Z,0.00
2018-06-13T05:21:47.895Z,0.00
2018-06-13T05:22:47.895Z,0.00
2018-06-13T05:24:42.080Z,0.00
2018-06-13T05:25:42.064Z,0.00
2018-06-13T05:27:36.148Z,0.00
2018-06-13T05:28:36.185Z,0.00
2018-06-13T05:30:30.272Z,0.00
2018-06-13T05:31:30.251Z,0.00
2018-06-13T05:33:24.353Z,0.00
2018-06-13T05:34:24.389Z,0.00
2018-06-13T05:36:18.469Z,0.00
2018-06-13T05:37:18.457Z,0.00
2018-06-13T05:39:12.571Z,0.00
2018-06-13T05:40:12.534Z,0.00
2018-06-13T05:42:06.630Z,0.00
2018-06-13T05:43:06.630Z,0.00
2018-06-13T05:45:00.745Z,0.00
2018-06-13T05:46:00.733Z,0.00
2018-06-13T05:47:55.332Z,0.00
2018-06-13T05:48:55.350Z,0.00
2018-06-13T05:50:49.966Z,0.00
2018-06-13T05:51:49.446Z,0.00
2018-06-13T05:53:43.590Z,0.00
2018-06-13T05:54:43.513Z,0.00
2018-06-13T05:56:37.636Z,0.00
2018-06-13T05:57:37.621Z,0.00
2018-06-13T05:59:31.733Z,0.00
2018-06-13T06:00:31.727Z,0.00
2018-06-13T06:02:25.840Z,0.00
2018-06-13T06:03:25.808Z,0.00
2018-06-13T06:05:19.940Z,0.00
2018-06-13T06:06:19.897Z,0.00
2018-06-13T06:08:14.357Z,0.00
2018-06-13T06:09:14.132Z,0.00
2018-06-13T06:11:08.369Z,0.00
2018-06-13T06:12:08.395Z,0.00
2018-06-13T06:14:02.445Z,0.00
2018-06-13T06:15:02.457Z,0.00
2018-06-13T06:37:23.707Z,92.68
2018-06-13T06:38:23.658Z,92.30
2018-06-13T06:39:23.706Z,91.92
2018-06-13T06:40:23.715Z,91.29
2018-06-13T06:41:23.762Z,90.72
2018-06-13T06:42:23.665Z,89.86
2018-06-13T06:43:23.735Z,90.23
2018-06-13T06:44:23.700Z,89.37
2018-06-13T06:45:23.703Z,89.18
2018-06-13T06:46:23.729Z,89.37
2018-06-13T06:47:24.793Z,88.99
2018-06-13T06:48:23.721Z,88.32
2018-06-13T06:49:23.795Z,88.32
2018-06-13T06:50:23.764Z,88.46
2018-06-13T06:51:23.815Z,87.74
2018-06-13T06:52:23.800Z,88.17
2018-06-13T06:53:23.841Z,88.32
2018-06-13T06:54:23.777Z,88.03
2018-06-13T06:55:23.820Z,88.03
2018-06-13T06:56:23.877Z,87.94
2018-06-13T06:57:23.957Z,87.37
2018-06-13T06:58:23.871Z,88.08
2018-06-13T06:59:23.962Z,88.08
2018-06-13T07:00:23.850Z,87.79
2018-06-13T07:01:23.973Z,87.79
2018-06-13T07:02:23.909Z,86.58
2018-06-13T07:03:25.013Z,85.92
2018-06-13T07:04:23.925Z,85.53
2018-06-13T07:05:23.988Z,85.25
2018-06-13T07:06:23.934Z,84.95
2018-06-13T07:07:25.059Z,84.42
2018-06-13T07:08:23.969Z,84.23
2018-06-13T07:09:23.951Z,83.23
2018-06-13T07:10:24.033Z,84.00
2018-06-13T07:11:23.990Z,84.33
2018-06-13T07:12:24.029Z,83.85
2018-06-13T07:13:23.991Z,84.14
2018-06-13T07:14:36.028Z,83.81
2018-06-13T07:15:24.001Z,84.04
2018-06-13T07:16:29.061Z,84.14
2018-06-13T07:17:24.041Z,84.04
2018-06-13T07:18:24.068Z,83.47
2018-06-13T07:19:24.091Z,83.27
2018-06-13T07:20:24.061Z,82.60
2018-06-13T07:21:24.080Z,82.41
2018-06-13T07:22:24.096Z,82.41
2018-06-13T07:23:24.099Z,82.03
2018-06-13T07:24:24.134Z,82.31
2018-06-13T07:25:24.094Z,82.03
2018-06-13T07:26:24.234Z,82.21
2018-06-13T07:27:24.125Z,82.03
2018-06-13T07:28:24.247Z,82.21
2018-06-13T07:29:24.141Z,81.93
2018-06-13T07:30:24.300Z,80.64
2018-06-13T07:31:24.159Z,81.02
2018-06-13T07:32:25.210Z,81.31
2018-06-13T07:33:24.181Z,81.70
2018-06-13T07:34:24.286Z,81.70
2018-06-13T07:35:24.222Z,81.12
2018-06-13T07:36:24.293Z,80.83
2018-06-13T07:37:24.235Z,80.93
2018-06-13T07:38:24.304Z,80.83
2018-06-13T07:39:24.246Z,80.49
2018-06-13T07:40:24.341Z,80.58
2018-06-13T07:41:24.322Z,80.58
2018-06-13T07:42:24.334Z,80.87
2018-06-13T07:43:24.296Z,80.49
2018-06-13T07:44:24.357Z,80.78
2018-06-13T07:45:24.288Z,80.30
2018-06-13T07:46:24.349Z,80.11
2018-06-13T07:47:24.316Z,79.82
2018-06-13T07:48:24.371Z,78.57
2018-06-13T07:49:24.328Z,78.47
2018-06-13T07:50:24.399Z,79.05
2018-06-13T07:51:24.366Z,79.14
2018-06-13T07:52:24.417Z,79.24
2018-06-13T07:53:24.383Z,79.63
2018-06-13T07:54:24.417Z,79.82
2018-06-13T07:55:24.410Z,79.63
2018-06-13T07:56:24.419Z,79.63
2018-06-13T07:57:24.404Z,79.72
2018-06-13T07:58:24.545Z,79.49
2018-06-13T07:59:24.445Z,80.30
2018-06-13T08:00:24.558Z,79.88
2018-06-13T08:01:24.457Z,80.83
2018-06-13T08:02:24.581Z,80.78
2018-06-13T08:03:24.495Z,80.49
2018-06-13T08:04:24.584Z,80.07
2018-06-13T08:05:24.512Z,80.20
2018-06-13T08:06:24.585Z,80.20
2018-06-13T08:07:24.534Z,80.20
2018-06-13T08:08:24.692Z,80.20
2018-06-13T08:09:24.526Z,80.30
2018-06-13T08:10:24.627Z,79.91
2018-06-13T08:11:24.581Z,80.30
2018-06-13T08:12:29.454Z,80.20
2018-06-13T08:13:24.585Z,80.49
2018-06-13T08:14:24.670Z,79.91
2018-06-13T08:15:24.788Z,79.57
2018-06-13T08:16:24.699Z,79.38
2018-06-13T08:17:24.626Z,79.19
2018-06-13T08:18:25.707Z,79.19
2018-06-13T08:19:24.665Z,79.57
2018-06-13T08:20:24.674Z,79.19
2018-06-13T08:21:24.665Z,79.67
2018-06-13T08:22:25.775Z,79.67
2018-06-13T08:23:24.735Z,79.14
2018-06-13T08:24:24.855Z,79.91
2018-06-13T08:25:24.711Z,79.82
2018-06-13T08:26:26.924Z,79.91
2018-06-13T08:27:24.743Z,79.72
2018-06-13T08:28:25.852Z,79.39
2018-06-13T08:29:24.790Z,79.59
2018-06-13T08:30:24.948Z,80.16
2018-06-13T08:31:24.778Z,81.02
2018-06-13T08:32:29.648Z,81.70
2018-06-13T08:33:24.793Z,81.18
2018-06-13T08:34:24.980Z,81.56
2018-06-13T08:35:24.831Z,82.42
2018-06-13T08:36:25.031Z,82.62
2018-06-13T08:37:24.855Z,83.00
2018-06-13T08:38:26.062Z,83.58
2018-06-13T08:39:24.901Z,83.19
2018-06-13T08:40:27.005Z,83.29
2018-06-13T08:41:24.873Z,82.81
2018-06-13T08:42:24.916Z,82.52
2018-06-13T08:43:26.117Z,82.56
2018-06-13T08:44:24.888Z,82.52
2018-06-13T08:45:26.106Z,82.94
2018-06-13T08:46:24.944Z,82.27
2018-06-13T08:47:27.205Z,82.56
2018-06-13T08:48:24.954Z,81.89
2018-06-13T08:49:27.131Z,81.60
2018-06-13T08:50:24.979Z,80.87
2018-06-13T08:51:26.141Z,80.49
2018-06-13T08:52:24.995Z,79.91
2018-06-13T08:53:25.120Z,79.53
2018-06-13T08:54:25.003Z,79.82
2018-06-13T08:55:25.060Z,78.96
2018-06-13T08:56:25.011Z,78.28
2018-06-13T08:57:25.020Z,78.86
2018-06-13T08:58:25.021Z,78.77
2018-06-13T08:59:25.030Z,78.96
2018-06-13T09:00:25.044Z,78.38
2018-06-13T09:01:25.204Z,78.96
2018-06-13T09:02:25.069Z,78.67
2018-06-13T09:03:25.090Z,78.77
2018-06-13T09:04:25.105Z,78.77
2018-06-13T09:05:25.097Z,78.86
2018-06-13T09:06:25.102Z,78.77
2018-06-13T09:07:25.270Z,78.09
2018-06-13T09:08:25.127Z,78.38
2018-06-13T09:09:25.132Z,79.24
2018-06-13T09:10:25.152Z,79.34
2018-06-13T09:11:25.139Z,78.92
2018-06-13T09:12:25.179Z,79.49
2018-06-13T09:13:25.179Z,80.16
2018-06-13T09:14:25.186Z,80.74
2018-06-13T09:15:25.196Z,81.56
2018-06-13T09:16:25.230Z,81.98
2018-06-13T09:17:25.204Z,81.79
2018-06-13T09:18:25.225Z,81.22
2018-06-13T09:19:25.236Z,80.22
2018-06-13T09:20:25.334Z,80.51
2018-06-13T09:21:25.250Z,80.79
2018-06-13T09:22:25.351Z,80.07
2018-06-13T09:23:25.283Z,79.97
2018-06-13T09:24:25.329Z,78.82
2018-06-13T09:25:25.309Z,78.92
2018-06-13T09:26:27.461Z,78.25
2018-06-13T09:27:25.311Z,77.09
2018-06-13T09:28:27.431Z,78.05
2018-06-13T09:29:25.343Z,78.38
2018-06-13T09:30:25.504Z,77.71
2018-06-13T09:31:25.401Z,76.75
2018-06-13T09:32:25.513Z,76.69
2018-06-13T09:33:25.385Z,76.12
2018-06-13T09:34:26.553Z,76.12
2018-06-13T09:35:25.461Z,76.02
2018-06-13T09:36:25.577Z,75.54
2018-06-13T09:37:25.534Z,75.25
2018-06-13T09:38:25.553Z,75.38
2018-06-13T09:39:25.466Z,75.15
2018-06-13T09:40:32.116Z,75.06
2018-06-13T09:41:25.453Z,74.39
2018-06-13T09:42:25.574Z,74.58
2018-06-13T09:43:25.472Z,74.96
2018-06-13T09:44:25.580Z,74.52
2018-06-13T09:45:25.502Z,73.75
2018-06-13T09:46:27.683Z,73.37
2018-06-13T09:47:25.525Z,72.99
2018-06-13T09:48:27.667Z,72.12
2018-06-13T09:49:25.564Z,72.41
2018-06-13T09:50:31.567Z,72.99
2018-06-13T09:51:25.559Z,72.79
2018-06-13T09:52:25.674Z,72.31
2018-06-13T09:53:25.580Z,72.64
2018-06-13T09:54:27.714Z,71.87
2018-06-13T09:55:25.601Z,71.48
2018-06-13T09:56:25.769Z,70.52
2018-06-13T09:57:25.626Z,69.95
2018-06-13T09:58:25.788Z,69.56
2018-06-13T09:59:25.625Z,69.46
2018-06-13T10:00:30.590Z,69.37
2018-06-13T10:01:25.688Z,68.70
2018-06-13T10:02:25.879Z,68.02
2018-06-13T10:03:25.697Z,68.70
2018-06-13T10:04:30.590Z,68.21
2018-06-13T10:05:25.714Z,68.12
2018-06-13T10:06:26.857Z,68.98
2018-06-13T10:07:25.711Z,68.41
2018-06-13T10:08:25.835Z,68.02
2018-06-13T10:09:25.737Z,67.83
2018-06-13T10:10:25.862Z,67.35
2018-06-13T10:11:25.751Z,67.29
2018-06-13T10:12:25.850Z,67.38
2018-06-13T10:13:25.792Z,67.29
2018-06-13T10:14:26.917Z,67.19
2018-06-13T10:15:25.793Z,66.91
2018-06-13T10:16:25.863Z,66.71
2018-06-13T10:17:25.807Z,66.33
2018-06-13T10:18:25.921Z,66.42
2018-06-13T10:19:25.864Z,66.33
2018-06-13T10:20:26.990Z,66.52
2018-06-13T10:21:25.868Z,67.29
2018-06-13T10:22:26.029Z,66.81
2018-06-13T10:23:25.894Z,67.29
2018-06-13T10:24:27.068Z,67.48
2018-06-13T10:25:25.984Z,67.77
2018-06-13T10:26:26.991Z,68.06
2018-06-13T10:27:25.949Z,67.96
2018-06-13T10:28:26.076Z,67.77
2018-06-13T10:29:25.942Z,68.02
2018-06-13T10:30:26.099Z,68.51
2018-06-13T10:31:25.989Z,69.27
2018-06-13T10:32:27.148Z,69.34
2018-06-13T10:33:25.985Z,70.10
2018-06-13T10:34:26.113Z,70.39
2018-06-13T10:35:26.031Z,69.34
2018-06-13T10:36:26.144Z,69.24
2018-06-13T10:37:26.034Z,69.72
2018-06-13T10:38:31.068Z,69.75
2018-06-13T10:39:26.085Z,68.60
2018-06-13T10:40:27.196Z,68.41
2018-06-13T10:41:26.099Z,68.60
2018-06-13T10:42:28.247Z,68.25
2018-06-13T10:43:26.095Z,67.96
2018-06-13T10:44:26.295Z,67.19
2018-06-13T10:45:26.126Z,67.58
2018-06-13T10:46:26.190Z,66.61
2018-06-13T10:47:26.122Z,66.52
2018-06-13T10:48:26.188Z,66.42
2018-06-13T10:49:26.147Z,66.52
2018-06-13T10:50:27.245Z,66.52
2018-06-13T10:51:26.167Z,67.16
2018-06-13T10:52:26.329Z,67.58
2018-06-13T10:53:26.179Z,67.48
2018-06-13T10:54:26.412Z,67.07
2018-06-13T10:55:26.223Z,67.25
2018-06-13T10:56:27.391Z,67.35
2018-06-13T10:57:26.247Z,67.16
2018-06-13T10:58:26.390Z,66.58
2018-06-13T10:59:26.276Z,66.30
2018-06-13T11:00:26.399Z,66.20
2018-06-13T11:01:26.291Z,66.58
2018-06-13T11:02:26.442Z,66.49
2018-06-13T11:03:26.290Z,67.03
2018-06-13T11:04:28.506Z,67.61
2018-06-13T11:05:26.313Z,67.03
2018-06-13T11:06:26.496Z,67.51
2018-06-13T11:07:26.361Z,67.13
2018-06-13T11:08:27.548Z,67.51
2018-06-13T11:09:26.381Z,68.28
2018-06-13T11:10:26.524Z,68.66
2018-06-13T11:11:26.405Z,68.66
2018-06-13T11:12:26.538Z,68.47
2018-06-13T11:13:26.428Z,68.76
2018-06-13T11:14:26.516Z,68.57
2018-06-13T11:15:26.415Z,68.70
2018-06-13T11:16:32.251Z,68.31
2018-06-13T11:17:26.434Z,68.12
2018-06-13T11:18:26.666Z,67.45
2018-06-13T11:19:26.453Z,67.16
2018-06-13T11:20:26.699Z,66.52
2018-06-13T11:21:26.527Z,66.14
2018-06-13T11:22:26.571Z,66.04
2018-06-13T11:23:26.483Z,64.79
2018-06-13T11:24:26.593Z,63.73
2018-06-13T11:25:26.538Z,63.86
2018-06-13T11:26:26.606Z,63.38
2018-06-13T11:27:26.567Z,63.57
2018-06-13T11:28:28.828Z,63.48
2018-06-13T11:29:26.568Z,62.41
2018-06-13T11:30:26.670Z,62.41
2018-06-13T11:31:26.607Z,62.32
2018-06-13T11:32:26.647Z,62.06
2018-06-13T11:33:26.604Z,61.58
2018-06-13T11:34:28.733Z,61.87
2018-06-13T11:35:26.634Z,62.26
2018-06-13T11:36:26.719Z,60.81
2018-06-13T11:37:26.689Z,59.27
2018-06-13T11:38:28.798Z,59.69
2018-06-13T11:39:26.977Z,59.78
2018-06-13T11:40:26.843Z,58.92
2018-06-13T11:41:26.826Z,59.01
2018-06-13T11:42:28.860Z,58.72
2018-06-13T11:43:26.725Z,58.63
2018-06-13T11:44:27.787Z,59.30
2018-06-13T11:45:26.743Z,58.92
2018-06-13T11:46:26.857Z,58.63
2018-06-13T11:47:26.758Z,58.15
2018-06-13T11:48:26.857Z,58.31
2018-06-13T11:49:26.784Z,58.31
2018-06-13T11:50:27.811Z,58.63
2018-06-13T11:51:26.802Z,59.30
2018-06-13T11:52:28.844Z,59.40
2018-06-13T11:53:26.819Z,58.85
2018-06-13T11:54:26.926Z,58.75
2018-06-13T11:55:26.847Z,59.43
2018-06-13T11:56:32.575Z,58.95
2018-06-13T11:57:26.877Z,58.27
2018-06-13T11:58:26.962Z,57.86
2018-06-13T11:59:26.896Z,58.05
2018-06-13T12:00:29.045Z,58.89
2018-06-13T12:01:26.902Z,59.66
2018-06-13T12:02:31.579Z,60.04
2018-06-13T12:03:26.924Z,60.33
2018-06-13T12:04:27.046Z,60.72
2018-06-13T12:05:26.960Z,61.58
2018-06-13T12:06:27.053Z,61.39
2018-06-13T12:07:26.960Z,60.27
2018-06-13T12:08:27.072Z,59.94
2018-06-13T12:09:27.003Z,60.33
2018-06-13T12:10:27.097Z,60.81
2018-06-13T12:11:27.019Z,60.04
2018-06-13T12:12:27.123Z,59.88
2018-06-13T12:13:27.058Z,58.24
2018-06-13T12:14:27.047Z,58.22
2018-06-13T12:15:27.060Z,58.72
2018-06-13T12:16:27.103Z,57.47
2018-06-13T12:17:27.078Z,56.22
2018-06-13T12:18:27.200Z,55.65
2018-06-13T12:19:27.088Z,56.22
2018-06-13T12:20:27.214Z,56.22
2018-06-13T12:21:27.141Z,56.05
2018-06-13T12:22:27.273Z,55.96
2018-06-13T12:23:27.140Z,55.77
2018-06-13T12:24:27.239Z,54.83
2018-06-13T12:25:27.452Z,54.54
2018-06-13T12:29:17.934Z,55.93
2018-06-13T12:30:17.996Z,56.67
2018-06-13T12:31:18.011Z,57.45
2018-06-13T12:32:17.989Z,57.06
2018-06-13T12:33:17.962Z,57.83
2018-06-13T12:34:18.910Z,57.25
2018-06-13T12:35:18.017Z,57.73
2018-06-13T12:36:18.031Z,58.02
2018-06-13T12:37:18.017Z,58.12
2018-06-13T12:38:18.063Z,57.57
2018-06-13T12:39:18.060Z,57.09
2018-06-13T12:40:22.879Z,57.67
2018-06-13T12:41:18.073Z,58.60
2018-06-13T12:42:22.895Z,58.72
2018-06-13T12:43:18.852Z,58.63
2018-06-13T12:44:18.163Z,58.95
2018-06-13T12:45:18.246Z,58.17
2018-06-13T12:46:18.137Z,57.31
2018-06-13T12:47:55.128Z,57.60
2018-06-13T12:48:18.166Z,57.31
2018-06-13T12:49:18.230Z,57.21
2018-06-13T12:58:01.217Z,57.40
2018-06-13T12:58:59.370Z,56.92
2018-06-13T12:59:59.269Z,57.28
2018-06-13T13:00:59.291Z,57.67
2018-06-13T13:01:59.297Z,57.76
2018-06-13T13:02:59.301Z,58.31
2018-06-13T13:03:59.378Z,58.79
2018-06-13T13:04:59.338Z,59.66
2018-06-13T13:05:59.354Z,59.75
2018-06-13T13:06:59.355Z,59.17
2018-06-13T13:07:59.372Z,59.27
2018-06-13T13:08:59.381Z,59.30
2018-06-13T13:09:59.383Z,58.63
2018-06-13T13:10:59.439Z,58.24
2018-06-13T13:11:59.429Z,57.76
2018-06-13T13:12:59.444Z,57.37
2018-06-13T13:14:00.520Z,57.37
2018-06-13T13:14:59.441Z,57.79
2018-06-13T13:16:00.486Z,58.27
2018-06-13T13:16:59.468Z,58.47
2018-06-13T13:17:59.531Z,58.85
2018-06-13T13:18:59.586Z,58.85
2018-06-13T13:19:59.495Z,59.62
2018-06-13T13:20:59.530Z,59.33
2018-06-13T13:21:59.568Z,59.52
2018-06-13T13:22:59.541Z,59.43
2018-06-13T13:23:59.541Z,58.59
2018-06-13T13:24:59.589Z,58.27
2018-06-13T13:25:59.645Z,56.54
2018-06-13T13:26:59.625Z,56.63
2018-06-13T13:27:59.761Z,56.54
2018-06-13T13:28:59.619Z,56.73
2018-06-13T13:29:59.683Z,57.12
2018-06-13T13:31:06.264Z,57.12
2018-06-13T13:31:59.718Z,57.02
2018-06-13T13:33:00.831Z,56.92
2018-06-13T13:33:59.864Z,57.21
2018-06-13T13:35:00.031Z,58.01
2018-06-13T13:35:59.700Z,57.12
2018-06-13T13:37:00.856Z,57.21
2018-06-13T13:37:59.743Z,57.12
2018-06-13T13:38:59.765Z,57.28
2018-06-13T13:39:59.776Z,57.57
2018-06-13T13:41:02.133Z,57.95
2018-06-13T13:41:59.791Z,58.24
2018-06-13T13:42:59.753Z,58.44
2018-06-13T13:43:59.883Z,59.47
2018-06-13T13:44:59.799Z,59.94
2018-06-13T13:46:05.735Z,60.14
2018-06-13T13:46:59.816Z,60.72
2018-06-13T13:47:59.954Z,60.59
2018-06-13T13:48:59.847Z,60.69
2018-06-13T13:50:00.976Z,61.07
2018-06-13T13:50:59.860Z,60.30
2018-06-13T13:52:04.750Z,60.52
2018-06-13T13:52:59.914Z,59.27
2018-06-13T13:54:00.038Z,58.12
2018-06-13T13:54:59.919Z,57.25
2018-06-13T13:55:59.929Z,57.15
2018-06-13T13:56:59.924Z,56.38
2018-06-13T13:58:00.013Z,56.84
2018-06-13T13:58:59.962Z,57.25
2018-06-13T14:00:02.107Z,58.02
2018-06-13T14:01:00.029Z,58.57
2018-06-13T14:02:02.079Z,59.24
2018-06-13T14:03:00.064Z,59.34
2018-06-13T14:04:00.027Z,59.15
2018-06-13T14:05:00.131Z,58.47
2018-06-13T14:06:05.806Z,57.70
2018-06-13T14:07:00.330Z,58.18
2018-06-13T14:08:00.261Z,57.06
2018-06-13T14:09:00.041Z,57.25
2018-06-13T14:10:00.171Z,57.15
2018-06-13T14:11:00.108Z,56.22
2018-06-13T14:12:00.201Z,55.93
2018-06-13T14:13:00.109Z,55.93
2018-06-13T14:14:04.809Z,56.10
2018-06-13T14:15:00.148Z,57.06
2018-06-13T14:16:00.152Z,57.25
2018-06-13T14:17:02.351Z,57.15
2018-06-13T14:18:00.227Z,56.67
2018-06-13T14:19:00.262Z,56.77
2018-06-13T14:20:00.182Z,57.54
2018-06-13T14:21:00.262Z,58.09
2018-06-13T14:22:00.263Z,57.99
2018-06-13T14:23:00.260Z,58.09
2018-06-13T14:24:00.230Z,58.18
2018-06-13T14:25:22.314Z,58.95
2018-06-13T14:26:00.347Z,58.67
2018-06-13T14:27:05.352Z,57.64
2018-06-13T14:28:00.291Z,57.45
2018-06-13T14:29:30.306Z,56.87
2018-06-13T14:30:00.331Z,57.25
2018-06-13T14:31:00.323Z,57.54
2018-06-13T14:32:05.353Z,57.25
2018-06-13T14:33:00.320Z,57.35
2018-06-13T14:34:01.500Z,55.90
2018-06-13T14:35:00.357Z,56.38
2018-06-13T14:36:01.463Z,56.58
2018-06-13T14:37:00.363Z,57.06
2018-06-13T14:38:02.498Z,56.67
2018-06-13T14:39:00.401Z,56.96
2018-06-13T14:40:00.494Z,57.45
2018-06-13T14:41:00.424Z,57.73
2018-06-13T14:42:00.485Z,57.54
2018-06-13T14:43:00.475Z,57.73
2018-06-13T14:44:00.501Z,58.02
2018-06-13T14:45:00.450Z,57.73
2018-06-13T14:46:07.309Z,57.83
2018-06-13T14:47:00.549Z,57.99
2018-06-13T14:48:00.585Z,58.37
2018-06-13T14:49:00.627Z,58.79
2018-06-13T14:50:11.385Z,58.89
2018-06-13T14:51:00.532Z,58.70
2018-06-13T14:52:07.356Z,57.73
2018-06-13T14:53:00.608Z,57.06
2018-06-13T14:54:07.369Z,57.06
2018-06-13T14:55:00.597Z,57.64
2018-06-13T14:56:00.714Z,57.06
2018-06-13T14:57:00.808Z,57.73
2018-06-13T14:58:06.323Z,57.35
2018-06-13T14:59:00.618Z,57.45
2018-06-13T15:00:01.726Z,57.25
2018-06-13T15:01:00.637Z,57.92
2018-06-13T15:02:00.715Z,57.54
2018-06-13T15:03:00.653Z,58.02
2018-06-13T15:04:02.789Z,57.73
2018-06-13T15:05:00.682Z,58.31
2018-06-13T15:06:01.773Z,58.12
2018-06-13T15:07:00.706Z,58.50
2018-06-13T15:08:05.396Z,58.50
2018-06-13T15:09:00.736Z,58.60
2018-06-13T15:10:00.763Z,58.60
2018-06-13T15:11:01.804Z,58.89
2018-06-13T15:12:00.799Z,58.82
2018-06-13T15:13:00.942Z,58.22
2018-06-13T15:14:00.787Z,58.89
2018-06-13T15:15:00.897Z,59.66
2018-06-13T15:16:00.793Z,58.98
2018-06-13T15:17:00.810Z,58.40
2018-06-13T15:18:00.909Z,58.63
2018-06-13T15:19:00.905Z,58.53
2018-06-13T15:20:00.855Z,59.59
2018-06-13T15:21:00.947Z,58.63
2018-06-13T15:22:00.885Z,58.82
2018-06-13T15:23:00.888Z,58.82
2018-06-13T15:24:00.953Z,58.05
2018-06-13T15:25:00.913Z,57.95
2018-06-13T15:26:03.028Z,57.95
2018-06-13T15:27:00.911Z,58.24
2018-06-13T15:28:00.942Z,58.24
2018-06-13T15:29:00.985Z,58.53
2018-06-13T15:30:00.965Z,58.05